Hovedside
METAR-TAF:

METAR-TAF

Lufthavner :

Førde lufthamn. Bringeland

Førde, Norge

breddegrad: 61-27N, lengdegrad: 005-52E, høyde over havet: 150 m

Gjeldene værobservasjon

Denne rapporten ble laget for 20 minutter siden, klokken 11:20 UTC
Vind 4 kt fra Nord-nordvest
Temperatur 0°C
Luftfuktighet 86%
Trykk 1005 hPa
Sikt 10 km eller mer
Få skyer i en høyde av 1000 ft
Spredte skyer i en høyde av 3000 ft
regnbyger i nærheten, tåke i nærheten

METAR: ENBL 241120Z 34004KT 9999 VCSH VCFG FEW010 SCT030 M00/M02 Q1005

Tid: 12:40 (11:40 UTC)


TAF: fraværende

Værobservasjoner og værvarsel for over 4000 flyplasser (METAR- og TAF-rapporter).

Tilgjengelige stasjoner er representert av de røde og gule prikkene på kartet.

Hold musepekeren over prikken for å se navnet på stasjonen.

Klikk så for å se værobservasjoner og -varsler.

For å forandre kartet kan du klikke på den grønne knappen med svart kryss for å zoome inn, på den grønne knappen med strek for å zoome ut, eller på de grønne pilene for å se tilstøtende kart.


METAR-TAF: